Main page
METAR-TAF:

METAR-TAF

Airports :

Ouagadougou Airport

Ouagadougou, Burkina Faso

latitude: 12-21N, longitude: 001-31W, elevation: 316 m

Current weather observation

The report was made 1 hour and 0 minutes ago, at 16:00 UTC
Wind 5 kt from the East, varying between North and Southeast
Temperature 36°C
Humidity 39%
Pressure 1011 hPa
Visibility 10 km or more
Few clouds at a height of 2000 ft

METAR: DFFD 211600Z 08005KT 010V140 9999 FEW020 36/20 Q1011 NOSIG

Time: 17:00 (17:00 UTC)

Forecast

The report was made 6 hours and 0 minutes ago, at 11:00 UTC
Forecast valid from 21 at 12 UTC to 22 at 18 UTC
Wind 8 kt from the South
Visibility 10 km or more
Few clouds at a height of 2600 ft
Probability 30% :
Temporary
from 21 at 16 UTC to 21 at 22 UTC
Few clouds at a height of 2600 ft
Few clouds at a height of 4000 ft, Cumulonimbus.
thunderstorm

TAF: DFFD 211100Z 2112/2218 18008KT 9999 FEW026 PROB30 TEMPO 2116/2122 TS FEW026 FEW040CB

Weather observations and forecasts of more than 4000 airports (METAR and TAF reports).

The available stations are represented by yellow and red dots on the map.

Hover mouse over dot to see the name of the station.

Then click to see weather observations and forecasts.

To change the map : click on the green buttons with a black cross to zoom in, on the green button with a dash to zoom out, or on the green arrows for adjacent maps.


METAR-TAF: